Time;durP1;ratioP1;P1;durP2;ratioP2;P2;SDS_P1;SDS_P2;PMS_P1;PMS_P2;Temp;Humidity;BMP_temperature;BMP_pressure;BME280_temperature;BME280_humidity;BME280_pressure;Samples;Min_cycle;Max_cycle;Signal;HPM_P1;HPM_P2
2023/11/28 00:01:14;;;;;;;24.27;21.30;;;2.70;99.90;;;;;;5065306;27;20043;-78
2023/11/28 00:03:40;;;;;;;27.58;21.90;;;2.60;99.90;;;;;;5095555;27;20040;-79
2023/11/28 00:06:07;;;;;;;30.60;24.27;;;2.70;99.90;;;;;;5077584;28;20032;-78
2023/11/28 00:08:33;;;;;;;36.50;27.25;;;2.70;99.90;;;;;;5099457;27;20043;-78
2023/11/28 00:10:59;;;;;;;30.90;24.20;;;2.60;99.90;;;;;;5046481;28;20549;-78
2023/11/28 00:13:29;;;;;;;30.13;22.95;;;2.60;99.90;;;;;;5064284;28;20031;-78
2023/11/28 00:15:55;;;;;;;28.55;22.02;;;2.60;99.90;;;;;;5065482;27;20043;-81
2023/11/28 00:18:21;;;;;;;29.43;23.80;;;2.60;99.90;;;;;;5082452;28;20409;-79
2023/11/28 00:20:47;;;;;;;25.33;20.73;;;2.60;99.90;;;;;;5082266;27;20731;-78
2023/11/28 00:23:15;;;;;;;23.95;19.40;;;2.50;99.90;;;;;;5095728;27;20040;-76
2023/11/28 00:25:41;;;;;;;24.42;20.02;;;2.60;99.90;;;;;;5098783;27;20043;-78
2023/11/28 00:28:11;;;;;;;23.92;20.02;;;2.50;99.90;;;;;;5115549;27;20050;-78
2023/11/28 00:30:38;;;;;;;23.73;19.25;;;2.50;99.90;;;;;;5097696;27;20027;-77
2023/11/28 00:33:05;;;;;;;20.50;17.47;;;2.50;99.90;;;;;;5068736;28;20043;-80
2023/11/28 00:35:31;;;;;;;25.98;19.95;;;2.50;99.90;;;;;;5080109;27;20066;-80
2023/11/28 00:37:57;;;;;;;20.83;17.42;;;2.50;99.90;;;;;;5100040;27;20042;-77
2023/11/28 00:40:31;;;;;;;20.02;16.83;;;2.50;99.90;;;;;;5046941;28;20035;-77
2023/11/28 00:42:59;;;;;;;17.67;15.33;;;2.40;99.90;;;;;;5073921;28;20038;-79
2023/11/28 00:45:26;;;;;;;20.50;16.93;;;2.40;99.90;;;;;;5066972;27;20663;-79
2023/11/28 00:47:53;;;;;;;20.15;17.17;;;2.40;99.90;;;;;;5080717;28;20510;-77
2023/11/28 00:50:21;;;;;;;20.93;17.20;;;2.40;99.90;;;;;;5051060;28;20039;-77
2023/11/28 00:52:48;;;;;;;20.48;16.60;;;2.40;99.90;;;;;;5066401;27;20468;-77
2023/11/28 00:55:16;;;;;;;21.85;16.70;;;2.40;99.90;;;;;;5064344;28;20040;-78
2023/11/28 00:57:47;;;;;;;19.52;16.10;;;2.40;99.90;;;;;;5095166;28;20035;-78
2023/11/28 01:00:14;;;;;;;22.00;17.87;;;2.40;99.90;;;;;;5080620;28;20043;-74
2023/11/28 01:02:41;;;;;;;22.40;17.33;;;2.40;99.90;;;;;;5082179;28;20039;-77
2023/11/28 01:05:11;;;;;;;21.05;16.92;;;2.40;99.90;;;;;;5080904;28;20032;-80
2023/11/28 01:07:38;;;;;;;22.80;17.17;;;2.40;99.90;;;;;;5066446;28;20051;-80
2023/11/28 01:10:05;;;;;;;24.52;19.13;;;2.40;99.90;;;;;;5083772;28;20043;-75
2023/11/28 01:12:31;;;;;;;24.45;18.05;;;2.40;99.90;;;;;;5081244;28;20032;-80
2023/11/28 01:14:57;;;;;;;22.93;17.40;;;2.30;99.90;;;;;;5084848;28;20035;-77
2023/11/28 01:17:24;;;;;;;21.50;16.23;;;2.30;99.90;;;;;;5082622;28;20060;-77
2023/11/28 01:19:50;;;;;;;24.30;17.53;;;2.30;99.90;;;;;;5061739;28;20043;-78
2023/11/28 01:22:17;;;;;;;21.95;17.02;;;2.30;99.90;;;;;;5079777;28;20479;-80
2023/11/28 01:24:43;;;;;;;22.92;17.35;;;2.30;99.90;;;;;;5080843;28;20381;-79
2023/11/28 01:27:09;;;;;;;21.20;17.05;;;2.30;99.90;;;;;;5066144;27;20027;-78
2023/11/28 01:29:36;;;;;;;18.80;15.77;;;2.30;99.90;;;;;;5068269;27;20695;-77
2023/11/28 01:32:03;;;;;;;22.13;17.90;;;2.30;99.90;;;;;;5102458;27;20036;-78
2023/11/28 01:34:29;;;;;;;20.30;16.60;;;2.30;99.90;;;;;;5086194;27;20036;-78
2023/11/28 01:36:55;;;;;;;19.73;16.53;;;2.30;99.90;;;;;;5103706;27;20039;-79
2023/11/28 01:39:22;;;;;;;19.10;15.52;;;2.30;99.90;;;;;;5105690;27;20520;-78
2023/11/28 01:41:48;;;;;;;19.23;15.93;;;2.30;99.90;;;;;;5101208;27;20035;-79
2023/11/28 01:44:15;;;;;;;19.60;15.77;;;2.30;99.90;;;;;;5064475;28;20040;-75
2023/11/28 01:46:42;;;;;;;22.52;17.85;;;2.20;99.90;;;;;;5085270;28;20031;-76
2023/11/28 01:49:10;;;;;;;18.85;15.10;;;2.20;99.90;;;;;;5086585;27;20329;-78
2023/11/28 01:51:37;;;;;;;22.20;16.73;;;2.20;99.90;;;;;;5100470;27;20062;-80
2023/11/28 01:54:06;;;;;;;18.52;14.20;;;2.10;99.90;;;;;;5118632;27;20637;-77
2023/11/28 01:56:35;;;;;;;17.60;14.90;;;2.20;99.90;;;;;;5084966;27;20518;-75
2023/11/28 01:59:03;;;;;;;20.45;15.55;;;2.10;99.90;;;;;;5087602;27;20047;-78
2023/11/28 02:01:30;;;;;;;19.40;15.52;;;2.10;99.90;;;;;;5052996;27;20525;-78
2023/11/28 02:03:57;;;;;;;20.67;16.95;;;2.10;99.90;;;;;;5097213;27;20039;-76
2023/11/28 02:06:23;;;;;;;20.10;15.70;;;2.10;99.90;;;;;;5070067;27;20023;-78
2023/11/28 02:08:50;;;;;;;22.42;17.08;;;2.10;99.90;;;;;;5082108;27;20031;-77
2023/11/28 02:11:17;;;;;;;19.80;16.17;;;2.10;99.90;;;;;;5101355;27;20042;-78
2023/11/28 02:13:44;;;;;;;22.50;18.25;;;2.10;99.90;;;;;;5084153;27;20050;-77
2023/11/28 02:16:13;;;;;;;21.67;17.53;;;2.10;99.90;;;;;;5119682;27;20276;-76
2023/11/28 02:18:40;;;;;;;22.77;17.47;;;2.10;99.90;;;;;;5084273;27;20039;-79
2023/11/28 02:21:12;;;;;;;24.50;18.30;;;2.10;99.90;;;;;;5068470;27;20051;-78
2023/11/28 02:23:40;;;;;;;25.50;21.10;;;2.10;99.90;;;;;;5083204;27;20027;-77
2023/11/28 02:26:25;;;;;;;22.87;18.77;;;2.10;99.90;;;;;;5087619;27;20039;-78
2023/11/28 02:28:53;;;;;;;23.80;19.57;;;2.00;99.90;;;;;;5054573;27;20042;-78
2023/11/28 02:31:20;;;;;;;22.90;18.93;;;2.00;99.90;;;;;;5067120;27;20394;-77
2023/11/28 02:33:48;;;;;;;24.93;20.17;;;2.00;99.90;;;;;;5086044;27;20040;-78
2023/11/28 02:36:15;;;;;;;25.20;20.20;;;2.00;99.90;;;;;;5069283;27;20516;-76
2023/11/28 02:38:41;;;;;;;27.17;20.63;;;2.00;99.90;;;;;;5050692;28;20501;-77
2023/11/28 02:41:08;;;;;;;26.30;20.10;;;2.00;99.90;;;;;;5081297;27;20039;-78
2023/11/28 02:43:34;;;;;;;27.50;20.83;;;2.00;99.90;;;;;;5100725;27;20394;-79
2023/11/28 02:46:01;;;;;;;30.23;21.43;;;2.00;99.90;;;;;;5085840;28;20318;-72
2023/11/28 02:48:27;;;;;;;27.25;20.85;;;2.10;99.90;;;;;;5065016;28;20422;-76
2023/11/28 02:50:53;;;;;;;29.07;23.33;;;2.10;99.90;;;;;;5081325;27;20031;-77
2023/11/28 02:53:20;;;;;;;33.42;24.58;;;2.10;99.90;;;;;;5102790;27;20383;-77
2023/11/28 02:55:47;;;;;;;28.85;22.00;;;2.10;99.90;;;;;;5069706;27;20047;-75
2023/11/28 02:58:13;;;;;;;27.43;22.10;;;2.10;99.90;;;;;;5096598;27;20067;-78
2023/11/28 03:00:40;;;;;;;25.80;21.60;;;2.10;99.90;;;;;;5096091;27;20055;-79
2023/11/28 03:03:06;;;;;;;29.93;23.20;;;2.00;99.90;;;;;;5094628;27;20027;-76
2023/11/28 03:05:32;;;;;;;31.07;23.67;;;2.00;99.90;;;;;;5099369;27;20043;-79
2023/11/28 03:07:59;;;;;;;28.33;22.63;;;2.00;99.90;;;;;;5084195;27;20500;-82
2023/11/28 03:10:25;;;;;;;27.63;21.17;;;2.00;99.90;;;;;;5083259;27;20039;-77
2023/11/28 03:12:51;;;;;;;23.97;20.40;;;2.00;99.90;;;;;;5064481;28;20028;-77
2023/11/28 03:15:17;;;;;;;26.42;20.95;;;2.00;99.90;;;;;;5060374;28;20501;-78
2023/11/28 03:17:46;;;;;;;28.55;22.02;;;2.00;99.90;;;;;;5064279;27;20044;-79
2023/11/28 03:20:12;;;;;;;23.43;18.57;;;2.00;99.90;;;;;;5080683;27;20189;-78
2023/11/28 03:22:40;;;;;;;22.42;17.63;;;1.90;99.90;;;;;;5098336;27;20497;-79
2023/11/28 03:25:08;;;;;;;24.33;18.60;;;1.90;99.90;;;;;;5084299;27;20035;-80
2023/11/28 03:27:34;;;;;;;19.30;15.30;;;1.90;99.90;;;;;;5065095;27;21206;-78
2023/11/28 03:30:01;;;;;;;22.10;16.40;;;1.90;99.90;;;;;;5098627;27;20625;-77
2023/11/28 03:32:27;;;;;;;22.05;15.25;;;1.90;99.90;;;;;;5067532;27;20035;-78
2023/11/28 03:34:53;;;;;;;18.30;12.53;;;1.90;99.90;;;;;;5083837;27;20051;-78
2023/11/28 03:37:20;;;;;;;16.88;12.10;;;1.80;99.90;;;;;;5099751;27;20041;-77
2023/11/28 03:39:46;;;;;;;16.30;10.17;;;1.80;99.90;;;;;;5067741;27;20486;-78
2023/11/28 03:42:12;;;;;;;15.17;10.57;;;1.70;99.90;;;;;;5066449;28;20512;-79
2023/11/28 03:44:38;;;;;;;14.50;9.87;;;1.60;99.90;;;;;;5081019;28;20038;-79
2023/11/28 03:47:05;;;;;;;11.87;9.03;;;1.50;99.90;;;;;;5081675;28;20027;-78
2023/11/28 03:49:31;;;;;;;12.43;8.70;;;1.50;99.90;;;;;;5101428;27;20027;-79
2023/11/28 03:51:58;;;;;;;11.67;7.20;;;1.40;99.90;;;;;;5099438;27;20032;-79
2023/11/28 03:54:24;;;;;;;9.10;6.47;;;1.30;99.90;;;;;;5087290;28;20047;-75
2023/11/28 03:56:51;;;;;;;9.77;5.90;;;1.10;99.90;;;;;;5078662;28;20050;-78
2023/11/28 03:59:17;;;;;;;7.37;5.07;;;1.00;99.90;;;;;;5080542;27;20047;-77
2023/11/28 04:01:45;;;;;;;8.23;5.47;;;0.90;99.90;;;;;;5097176;27;20066;-78
2023/11/28 04:04:11;;;;;;;7.20;4.97;;;0.90;99.90;;;;;;5082021;27;20039;-78
2023/11/28 04:06:37;;;;;;;7.97;5.07;;;0.70;99.90;;;;;;5083082;27;20040;-78
2023/11/28 04:09:04;;;;;;;7.80;5.03;;;0.70;99.90;;;;;;5069340;27;20035;-78
2023/11/28 04:11:30;;;;;;;8.33;5.43;;;0.60;99.90;;;;;;5065864;27;20031;-77
2023/11/28 04:13:58;;;;;;;8.07;4.93;;;0.60;99.90;;;;;;5081515;28;20490;-77
2023/11/28 04:16:25;;;;;;;8.10;4.63;;;0.50;99.90;;;;;;5082716;27;20041;-76
2023/11/28 04:18:52;;;;;;;5.50;3.73;;;0.50;99.90;;;;;;5068676;28;20032;-77
2023/11/28 04:21:19;;;;;;;5.97;4.20;;;0.40;99.90;;;;;;5083561;27;20040;-78
2023/11/28 04:23:47;;;;;;;4.93;3.30;;;0.40;99.90;;;;;;5081739;28;20491;-80
2023/11/28 04:26:14;;;;;;;6.60;4.33;;;0.30;99.90;;;;;;5098031;27;20032;-75
2023/11/28 04:28:40;;;;;;;6.73;3.57;;;0.30;99.90;;;;;;5065480;28;20036;-81
2023/11/28 04:31:20;;;;;;;4.77;3.37;;;0.20;99.90;;;;;;5093386;27;20405;-77
2023/11/28 04:33:49;;;;;;;7.63;3.73;;;0.20;99.90;;;;;;5082949;27;20481;-78
2023/11/28 04:36:16;;;;;;;5.93;3.37;;;0.20;99.90;;;;;;5064970;27;20032;-79
2023/11/28 04:38:44;;;;;;;6.07;3.47;;;0.20;99.90;;;;;;5067197;27;20046;-79
2023/11/28 04:41:12;;;;;;;5.67;3.93;;;0.20;99.90;;;;;;5076181;27;20043;-80
2023/11/28 04:43:38;;;;;;;3.60;3.03;;;0.20;99.90;;;;;;5084972;28;20035;-78
2023/11/28 04:46:06;;;;;;;5.17;3.27;;;0.20;99.90;;;;;;5064486;27;20474;-80
2023/11/28 04:48:32;;;;;;;4.57;3.20;;;0.10;99.90;;;;;;5101491;27;20513;-77
2023/11/28 04:50:59;;;;;;;10.27;4.00;;;0.10;99.90;;;;;;5078879;28;20042;-79
2023/11/28 04:53:26;;;;;;;5.47;3.67;;;0.10;99.90;;;;;;5066321;28;20032;-78
2023/11/28 04:55:52;;;;;;;7.57;3.67;;;0.10;99.90;;;;;;5096139;27;20043;-80
2023/11/28 04:58:19;;;;;;;7.57;4.47;;;0.10;99.90;;;;;;5083781;28;20474;-77
2023/11/28 05:00:45;;;;;;;7.00;4.67;;;0.10;99.90;;;;;;5077884;27;20044;-76
2023/11/28 05:03:12;;;;;;;6.57;4.37;;;0.10;99.90;;;;;;5113425;27;20039;-79
2023/11/28 05:05:38;;;;;;;6.63;4.27;;;0.10;99.90;;;;;;5065229;28;20039;-78
2023/11/28 05:08:05;;;;;;;7.97;5.03;;;0.10;99.90;;;;;;5076541;28;20066;-80
2023/11/28 05:10:32;;;;;;;8.50;4.57;;;0.10;99.90;;;;;;5046766;28;20021;-79
2023/11/28 05:12:59;;;;;;;7.30;4.47;;;0.10;99.90;;;;;;5078850;28;20068;-80
2023/11/28 05:15:25;;;;;;;10.80;5.10;;;0.10;99.90;;;;;;5067428;28;20031;-74
2023/11/28 05:17:52;;;;;;;7.70;4.97;;;0.20;99.90;;;;;;5063295;28;20036;-78
2023/11/28 05:20:18;;;;;;;8.87;5.30;;;0.20;99.90;;;;;;5065048;28;20039;-80
2023/11/28 05:22:45;;;;;;;7.53;5.27;;;0.20;99.90;;;;;;5066547;28;20062;-75
2023/11/28 05:25:13;;;;;;;8.57;5.47;;;0.20;99.90;;;;;;5098332;28;20032;-81
2023/11/28 05:27:40;;;;;;;8.73;5.60;;;0.20;99.90;;;;;;5064428;28;20039;-77
2023/11/28 05:30:08;;;;;;;10.23;5.63;;;0.20;99.90;;;;;;5084649;28;20035;-79
2023/11/28 05:32:34;;;;;;;10.10;5.60;;;0.30;99.90;;;;;;5068627;28;20039;-80
2023/11/28 05:35:02;;;;;;;8.60;5.40;;;0.30;99.90;;;;;;5074563;28;20043;-79
2023/11/28 05:37:30;;;;;;;8.67;5.30;;;0.30;99.90;;;;;;5065463;28;20043;-80
2023/11/28 05:39:58;;;;;;;8.40;5.10;;;0.30;99.90;;;;;;5082402;28;20039;-80
2023/11/28 05:42:26;;;;;;;9.53;5.70;;;0.40;99.90;;;;;;5064588;28;20039;-80
2023/11/28 05:44:53;;;;;;;9.17;5.80;;;0.40;99.90;;;;;;5100504;28;20039;-78
2023/11/28 05:47:20;;;;;;;10.67;6.03;;;0.40;99.90;;;;;;5080308;28;20094;-80
2023/11/28 05:49:47;;;;;;;9.10;5.70;;;0.40;99.90;;;;;;5082167;28;20036;-77
2023/11/28 05:52:14;;;;;;;8.90;6.23;;;0.50;99.90;;;;;;5063518;28;20405;-81
2023/11/28 05:54:40;;;;;;;9.07;5.67;;;0.50;99.90;;;;;;5065622;28;20054;-80
2023/11/28 05:57:07;;;;;;;10.57;6.10;;;0.60;99.90;;;;;;5077856;28;20062;-82
2023/11/28 05:59:34;;;;;;;11.77;5.40;;;0.60;99.90;;;;;;5065869;28;20035;-73
2023/11/28 06:02:05;;;;;;;8.10;5.30;;;0.60;99.90;;;;;;5051975;28;20070;-79
2023/11/28 06:04:32;;;;;;;6.40;4.38;;;0.60;99.90;;;;;;5097074;28;20066;-80
2023/11/28 06:07:02;;;;;;;8.40;5.53;;;0.70;99.90;;;;;;5067737;28;20098;-80
2023/11/28 06:09:28;;;;;;;9.07;4.83;;;0.70;99.90;;;;;;5098528;28;20039;-78
2023/11/28 06:11:56;;;;;;;8.37;5.47;;;0.70;99.90;;;;;;5078444;28;20453;-79
2023/11/28 06:14:25;;;;;;;8.23;5.33;;;0.80;99.90;;;;;;5082573;28;20074;-82
2023/11/28 06:16:51;;;;;;;9.67;5.13;;;0.80;99.90;;;;;;5083994;27;20347;-83
2023/11/28 06:19:18;;;;;;;9.87;4.90;;;0.80;99.90;;;;;;5075762;27;20035;-82
2023/11/28 06:21:47;;;;;;;8.50;5.50;;;0.80;99.90;;;;;;5112791;27;20047;-81
2023/11/28 06:24:14;;;;;;;8.13;5.93;;;0.80;99.90;;;;;;5101350;27;20039;-79
2023/11/28 06:26:41;;;;;;;10.17;5.70;;;0.80;99.90;;;;;;5069088;27;20051;-78
2023/11/28 06:29:07;;;;;;;9.80;6.07;;;0.80;99.90;;;;;;5105846;27;20556;-82
2023/11/28 06:31:33;;;;;;;10.93;5.37;;;0.80;99.90;;;;;;5098651;27;20036;-80
2023/11/28 06:34:00;;;;;;;9.67;5.63;;;0.80;99.90;;;;;;5070980;27;20047;-78
2023/11/28 06:36:26;;;;;;;8.43;4.87;;;0.80;99.90;;;;;;5103002;27;20924;-80
2023/11/28 06:38:54;;;;;;;8.37;5.20;;;0.80;99.90;;;;;;5084664;28;20047;-80
2023/11/28 06:41:20;;;;;;;9.90;5.53;;;0.80;99.90;;;;;;5099979;27;21056;-79
2023/11/28 06:43:47;;;;;;;8.43;5.10;;;0.80;99.90;;;;;;5085050;27;20039;-77
2023/11/28 06:46:13;;;;;;;7.23;5.47;;;0.80;99.90;;;;;;5068633;28;20040;-83
2023/11/28 06:48:40;;;;;;;10.13;5.50;;;0.80;99.90;;;;;;5082096;27;20036;-82
2023/11/28 06:51:07;;;;;;;7.67;5.13;;;0.90;99.90;;;;;;5082454;27;20039;-76
2023/11/28 06:53:33;;;;;;;8.03;5.67;;;0.80;99.90;;;;;;5102203;27;20054;-81
2023/11/28 06:56:03;;;;;;;8.77;5.40;;;0.80;99.90;;;;;;5104261;27;20509;-75
2023/11/28 06:58:29;;;;;;;7.30;5.30;;;0.80;99.90;;;;;;5099210;27;20039;-81
2023/11/28 07:00:56;;;;;;;8.57;5.07;;;0.90;99.90;;;;;;5084943;27;20048;-77
2023/11/28 07:03:22;;;;;;;8.37;5.63;;;0.90;99.90;;;;;;5084019;27;20036;-80
2023/11/28 07:05:49;;;;;;;9.80;5.40;;;0.90;99.90;;;;;;5066908;27;20028;-81
2023/11/28 07:08:15;;;;;;;9.70;5.47;;;0.90;99.90;;;;;;5083438;27;20036;-81
2023/11/28 07:10:41;;;;;;;10.03;5.73;;;1.00;99.90;;;;;;5050373;27;20055;-81
2023/11/28 07:13:08;;;;;;;10.63;5.63;;;1.00;99.90;;;;;;5085511;27;20395;-80
2023/11/28 07:15:34;;;;;;;10.30;5.33;;;1.00;99.90;;;;;;5086952;27;20047;-80
2023/11/28 07:18:01;;;;;;;13.90;5.77;;;1.10;99.90;;;;;;5088119;27;20046;-80
2023/11/28 07:20:28;;;;;;;6.87;5.03;;;1.10;99.90;;;;;;5064610;27;20042;-82
2023/11/28 07:22:55;;;;;;;11.70;5.97;;;1.10;99.90;;;;;;5089725;28;20049;-82
2023/11/28 07:25:22;;;;;;;9.73;5.77;;;1.20;99.90;;;;;;5120273;27;20420;-77
2023/11/28 07:27:48;;;;;;;6.73;4.60;;;1.20;99.90;;;;;;5075142;27;20035;-83
2023/11/28 07:30:16;;;;;;;7.47;5.00;;;1.20;99.90;;;;;;5076324;27;20024;-76
2023/11/28 07:32:42;;;;;;;6.20;4.25;;;1.20;99.90;;;;;;5066482;28;20038;-85
2023/11/28 07:35:09;;;;;;;7.07;4.53;;;1.20;99.90;;;;;;5071134;27;20040;-81
2023/11/28 07:37:35;;;;;;;9.60;4.53;;;1.20;99.90;;;;;;5089350;28;20032;-82
2023/11/28 07:40:04;;;;;;;7.73;5.63;;;1.30;99.90;;;;;;5098724;27;20338;-73
2023/11/28 07:42:30;;;;;;;6.57;4.20;;;1.30;99.90;;;;;;5071831;27;20418;-77
2023/11/28 07:44:57;;;;;;;7.10;5.60;;;1.30;99.90;;;;;;5069991;27;20046;-79
2023/11/28 07:47:23;;;;;;;7.00;5.50;;;1.30;99.90;;;;;;5065254;27;20040;-76
2023/11/28 07:49:50;;;;;;;10.00;5.60;;;1.30;99.90;;;;;;5101629;27;20039;-78
2023/11/28 07:52:17;;;;;;;6.57;4.73;;;1.30;99.90;;;;;;5096135;27;20043;-73
2023/11/28 07:54:44;;;;;;;8.23;4.13;;;1.30;99.90;;;;;;5103063;27;20035;-79
2023/11/28 07:57:10;;;;;;;7.87;4.90;;;1.30;99.90;;;;;;5085955;27;20027;-79
2023/11/28 07:59:36;;;;;;;9.53;5.00;;;1.30;99.90;;;;;;5070470;27;20039;-80
2023/11/28 08:02:03;;;;;;;8.93;4.78;;;1.30;99.90;;;;;;5061873;27;20048;-73
2023/11/28 08:04:29;;;;;;;9.87;6.20;;;1.30;99.90;;;;;;5102587;27;20043;-83
2023/11/28 08:06:56;;;;;;;6.23;4.17;;;1.40;99.90;;;;;;5101171;27;20425;-79
2023/11/28 08:09:22;;;;;;;4.73;3.30;;;1.40;99.90;;;;;;5066485;27;20032;-82
2023/11/28 08:11:49;;;;;;;5.90;3.47;;;1.40;99.90;;;;;;5086598;28;20398;-83
2023/11/28 08:14:16;;;;;;;4.47;2.97;;;1.40;99.90;;;;;;5105935;27;20027;-83
2023/11/28 08:16:43;;;;;;;4.47;3.35;;;1.40;99.90;;;;;;5076082;27;20130;-76
2023/11/28 08:19:10;;;;;;;4.25;3.13;;;1.40;99.90;;;;;;5088530;28;20031;-79
2023/11/28 08:21:36;;;;;;;4.27;3.33;;;1.50;99.90;;;;;;5108772;27;20039;-79
2023/11/28 08:24:03;;;;;;;6.27;3.30;;;1.50;99.90;;;;;;5067268;28;20036;-80
2023/11/28 08:26:30;;;;;;;5.57;3.22;;;1.50;99.90;;;;;;5086646;28;20036;-82
2023/11/28 08:28:56;;;;;;;4.53;2.80;;;1.60;99.90;;;;;;5084902;27;20405;-79
2023/11/28 08:31:23;;;;;;;6.10;3.93;;;1.60;99.90;;;;;;5062980;27;20039;-74
2023/11/28 08:33:49;;;;;;;6.20;3.67;;;1.60;99.90;;;;;;5081894;28;20039;-84
2023/11/28 08:36:16;;;;;;;4.60;3.10;;;1.50;99.90;;;;;;5064347;28;20118;-81
2023/11/28 08:38:42;;;;;;;4.03;2.57;;;1.40;99.90;;;;;;5078050;27;20036;-81
2023/11/28 08:41:10;;;;;;;5.23;3.57;;;1.30;99.90;;;;;;5096760;27;20047;-79
2023/11/28 08:43:38;;;;;;;5.77;3.27;;;1.30;99.90;;;;;;5097450;27;20484;-82
2023/11/28 08:46:04;;;;;;;4.90;2.63;;;1.30;99.90;;;;;;5078224;28;20032;-79
2023/11/28 08:48:31;;;;;;;5.13;3.13;;;1.30;99.90;;;;;;5065988;28;20039;-83
2023/11/28 08:50:58;;;;;;;5.27;3.07;;;1.30;99.90;;;;;;5078544;28;20032;-79
2023/11/28 08:53:24;;;;;;;6.53;3.00;;;1.30;99.90;;;;;;5093302;27;20032;-76
2023/11/28 08:55:50;;;;;;;4.25;3.20;;;1.40;99.90;;;;;;5059526;28;20524;-81
2023/11/28 08:58:17;;;;;;;4.70;2.70;;;1.40;99.90;;;;;;5066452;28;20581;-83
2023/11/28 09:00:43;;;;;;;5.77;3.40;;;1.40;99.90;;;;;;5067073;28;20035;-82
2023/11/28 09:03:09;;;;;;;4.43;3.40;;;1.40;99.90;;;;;;5079138;28;20039;-78
2023/11/28 09:05:35;;;;;;;5.70;3.13;;;1.50;99.90;;;;;;5079053;28;20153;-80
2023/11/28 09:08:02;;;;;;;6.00;3.70;;;1.50;99.90;;;;;;5081725;28;20027;-80
2023/11/28 09:10:28;;;;;;;4.80;2.93;;;1.50;99.90;;;;;;5082837;28;20046;-80
2023/11/28 09:12:55;;;;;;;5.73;3.50;;;1.50;99.90;;;;;;5079559;28;20031;-83
2023/11/28 09:15:21;;;;;;;5.77;3.37;;;1.50;99.90;;;;;;5084775;28;20445;-80
2023/11/28 09:17:47;;;;;;;4.67;3.10;;;1.60;99.90;;;;;;5084558;28;20039;-84
2023/11/28 09:20:14;;;;;;;5.30;3.40;;;1.60;99.90;;;;;;5067873;28;20117;-79
2023/11/28 09:22:40;;;;;;;6.60;3.87;;;1.60;99.90;;;;;;5082453;28;20039;-80
2023/11/28 09:25:09;;;;;;;6.27;4.13;;;1.60;99.90;;;;;;5085828;28;20043;-79
2023/11/28 09:27:36;;;;;;;7.73;4.27;;;1.70;99.90;;;;;;5087519;28;20044;-81
2023/11/28 09:30:02;;;;;;;5.13;3.53;;;1.70;99.90;;;;;;5086899;28;20050;-82
2023/11/28 09:32:29;;;;;;;10.40;4.10;;;1.70;99.90;;;;;;5069402;28;20039;-79
2023/11/28 09:34:56;;;;;;;7.13;3.93;;;1.80;99.90;;;;;;5070999;28;20030;-83
2023/11/28 09:37:22;;;;;;;9.23;5.10;;;1.90;99.90;;;;;;5083755;28;20024;-82
2023/11/28 09:39:49;;;;;;;8.07;5.73;;;1.90;99.90;;;;;;5096985;28;20031;-80
2023/11/28 09:42:18;;;;;;;9.43;5.73;;;2.10;99.90;;;;;;5085956;28;20043;-81
2023/11/28 09:44:48;;;;;;;7.90;4.45;;;2.30;99.90;;;;;;5081950;28;20032;-80
2023/11/28 09:47:17;;;;;;;4.60;3.45;;;2.50;99.90;;;;;;5084349;28;20261;-82
2023/11/28 09:49:46;;;;;;;5.18;3.72;;;2.80;99.90;;;;;;5083644;27;20486;-80
2023/11/28 09:52:14;;;;;;;3.22;2.42;;;3.10;99.90;;;;;;5088219;27;20042;-79
2023/11/28 09:54:40;;;;;;;4.95;3.03;;;3.50;99.90;;;;;;5086382;27;20031;-79
2023/11/28 09:57:08;;;;;;;4.30;2.25;;;3.80;99.90;;;;;;5072117;27;20473;-83
2023/11/28 09:59:40;;;;;;;2.42;1.77;;;4.10;99.90;;;;;;5058627;27;20027;-85
2023/11/28 10:02:07;;;;;;;2.70;1.75;;;4.40;99.90;;;;;;5100525;27;20039;-84
2023/11/28 10:04:38;;;;;;;2.05;1.50;;;4.80;99.90;;;;;;5084880;27;20019;-81
2023/11/28 10:07:06;;;;;;;3.42;1.52;;;5.00;99.90;;;;;;5115171;27;20501;-78
2023/11/28 10:09:35;;;;;;;2.28;1.55;;;5.30;99.90;;;;;;5082994;27;20023;-83
2023/11/28 10:12:06;;;;;;;3.88;1.77;;;5.40;99.90;;;;;;5101480;27;20038;-79
2023/11/28 10:14:32;;;;;;;2.17;1.50;;;5.60;99.90;;;;;;5081868;28;20046;-81
2023/11/28 10:16:58;;;;;;;2.42;1.42;;;5.70;99.90;;;;;;5103323;27;20036;-76
2023/11/28 10:19:25;;;;;;;2.58;1.55;;;5.80;99.90;;;;;;5086047;27;20028;-85
2023/11/28 10:21:51;;;;;;;1.95;1.67;;;5.90;99.90;;;;;;5102723;27;20462;-85
2023/11/28 10:24:20;;;;;;;5.88;2.45;;;5.90;99.90;;;;;;5083916;27;20038;-82
2023/11/28 10:26:46;;;;;;;4.25;2.50;;;5.90;99.90;;;;;;5086398;27;20023;-85
2023/11/28 10:29:13;;;;;;;5.28;2.05;;;5.60;99.90;;;;;;5104080;27;20043;-81
2023/11/28 10:31:40;;;;;;;3.47;2.20;;;5.30;99.90;;;;;;5085185;27;20036;-85
2023/11/28 10:34:10;;;;;;;4.93;2.38;;;5.00;99.90;;;;;;5089364;27;20035;-80
2023/11/28 10:36:44;;;;;;;3.08;2.22;;;4.70;99.90;;;;;;5087272;27;20517;-84
2023/11/28 10:39:15;;;;;;;3.70;2.25;;;4.40;99.90;;;;;;5086503;27;20040;-74
2023/11/28 10:41:41;;;;;;;5.93;2.25;;;4.10;99.90;;;;;;5105118;27;20437;-83
2023/11/28 10:44:08;;;;;;;4.93;2.42;;;3.90;99.90;;;;;;5074174;27;20593;-82
2023/11/28 10:46:36;;;;;;;2.60;1.63;;;3.70;99.90;;;;;;5090558;27;20506;-83
2023/11/28 10:49:03;;;;;;;3.03;2.22;;;3.60;99.90;;;;;;5083352;27;20537;-84
2023/11/28 10:51:30;;;;;;;3.75;2.20;;;3.50;99.90;;;;;;5089547;28;20038;-81
2023/11/28 10:54:09;;;;;;;3.15;1.90;;;3.40;99.90;;;;;;5090320;27;20047;-81
2023/11/28 10:56:49;;;;;;;2.05;1.60;;;3.30;99.90;;;;;;5092117;27;20697;-83
2023/11/28 10:59:31;;;;;;;4.57;2.08;;;3.30;99.90;;;;;;5056330;27;20494;-84
2023/11/28 11:01:58;;;;;;;4.30;2.63;;;3.20;99.90;;;;;;5089687;27;20050;-84
2023/11/28 11:04:24;;;;;;;7.82;2.80;;;3.20;99.90;;;;;;5084386;27;20027;-84
2023/11/28 11:06:52;;;;;;;4.45;2.65;;;3.20;99.90;;;;;;5077270;27;20387;-79
2023/11/28 11:09:20;;;;;;;4.47;3.47;;;3.20;99.90;;;;;;5067847;27;20047;-80
2023/11/28 11:11:47;;;;;;;6.70;3.95;;;3.30;99.90;;;;;;5067470;27;20447;-84
2023/11/28 11:14:40;;;;;;;5.10;3.25;;;3.30;99.90;;;;;;5080481;28;20032;-81
2023/11/28 11:17:43;;;;;;;4.05;2.40;;;3.30;99.90;;;;;;5102065;27;20039;-82
2023/11/28 11:20:12;;;;;;;3.70;2.55;;;3.30;99.90;;;;;;5039205;28;20044;-77
2023/11/28 11:22:45;;;;;;;6.22;2.53;;;3.40;99.90;;;;;;5106358;27;20032;-80
2023/11/28 11:25:11;;;;;;;2.92;2.10;;;3.40;99.90;;;;;;5057501;27;20878;-82
2023/11/28 11:27:38;;;;;;;3.65;2.13;;;3.40;99.90;;;;;;5105100;27;20474;-84
2023/11/28 11:30:05;;;;;;;3.50;2.55;;;3.50;99.90;;;;;;5067392;28;20038;-83
2023/11/28 11:32:35;;;;;;;3.97;2.25;;;3.50;99.90;;;;;;5085795;27;20042;-79
2023/11/28 11:35:05;;;;;;;6.60;1.95;;;3.60;99.90;;;;;;5107393;27;20032;-81
2023/11/28 11:37:33;;;;;;;2.72;1.70;;;3.60;99.90;;;;;;5072604;27;20043;-81
2023/11/28 11:40:01;;;;;;;4.90;2.65;;;3.60;99.90;;;;;;5084785;27;20737;-84
2023/11/28 11:42:35;;;;;;;4.18;2.10;;;3.60;99.90;;;;;;5099810;27;20410;-81
2023/11/28 11:45:05;;;;;;;3.45;1.70;;;3.50;99.90;;;;;;5100301;27;20042;-81
2023/11/28 11:47:33;;;;;;;3.00;2.20;;;3.40;99.90;;;;;;5072511;27;20406;-78
2023/11/28 11:50:01;;;;;;;3.10;2.05;;;3.40;99.90;;;;;;5070365;27;20028;-82
2023/11/28 11:52:29;;;;;;;3.42;1.80;;;3.50;99.90;;;;;;5097438;27;20047;-80
2023/11/28 11:55:09;;;;;;;3.58;1.90;;;3.40;99.90;;;;;;5065408;27;20043;-77
2023/11/28 11:57:41;;;;;;;4.55;1.40;;;3.40;99.90;;;;;;5063847;27;20383;-82
2023/11/28 12:00:10;;;;;;;2.72;2.10;;;3.50;99.90;;;;;;5067347;27;20043;-81
2023/11/28 12:02:40;;;;;;;4.65;2.13;;;3.60;99.90;;;;;;5065538;27;20046;-85
2023/11/28 12:05:08;;;;;;;3.90;2.80;;;3.80;99.90;;;;;;5081402;27;20046;-83
2023/11/28 12:07:35;;;;;;;4.53;3.35;;;3.90;99.90;;;;;;5051914;27;20020;-85
2023/11/28 12:10:09;;;;;;;7.38;3.97;;;4.00;99.90;;;;;;5078942;28;20031;-81
2023/11/28 12:12:36;;;;;;;3.95;2.83;;;4.10;99.90;;;;;;5069191;27;20042;-85
2023/11/28 12:15:02;;;;;;;5.65;3.08;;;4.10;99.90;;;;;;5084181;28;20024;-85
2023/11/28 12:17:29;;;;;;;5.18;3.72;;;4.10;99.90;;;;;;5086349;28;20031;-77
2023/11/28 12:19:55;;;;;;;3.35;2.20;;;4.10;99.90;;;;;;5098230;27;20109;-84
2023/11/28 12:22:22;;;;;;;5.90;2.33;;;4.20;99.90;;;;;;5063219;27;20354;-78
2023/11/28 12:24:48;;;;;;;3.63;2.10;;;4.20;99.90;;;;;;5079254;28;20038;-81
2023/11/28 12:27:15;;;;;;;3.45;2.30;;;4.20;99.90;;;;;;5097876;27;20512;-83
2023/11/28 12:29:42;;;;;;;4.10;2.58;;;4.20;99.90;;;;;;5080668;27;20040;-78
2023/11/28 12:32:08;;;;;;;6.65;2.55;;;4.20;99.90;;;;;;5065386;27;20125;-78
2023/11/28 12:34:39;;;;;;;3.85;2.25;;;4.20;99.90;;;;;;5070378;27;20490;-83
2023/11/28 12:37:07;;;;;;;5.43;2.20;;;4.20;99.90;;;;;;5064578;27;20035;-83
2023/11/28 12:39:33;;;;;;;3.45;2.28;;;4.20;99.90;;;;;;5081591;28;20576;-80
2023/11/28 12:42:00;;;;;;;5.95;2.40;;;4.20;99.90;;;;;;5068136;28;20512;-80
2023/11/28 12:44:33;;;;;;;3.58;2.72;;;4.20;99.90;;;;;;5064557;28;20385;-83
2023/11/28 12:46:59;;;;;;;;;;;4.20;99.90;;;;;;5070446;28;20036;-78
2023/11/28 12:49:26;;;;;;;3.97;2.95;;;4.20;99.90;;;;;;5077040;28;19922;-81
2023/11/28 12:51:57;;;;;;;5.60;3.70;;;4.20;99.90;;;;;;5047603;27;20036;-83